El Palomar, Argentina

10:24 AM ART on January 28, 2015 (GMT -0300)
Loma Hermosa | Change Station
CLOSE
Current Station
Personal Weather Station
Location: Loma Hermosa, BUENOS AIRES
Elevation: 70 ft
Nearby Weather Stations

Elev 70 ft 34.56 °S, 58.59 °W | Updated 4 minutes ago

Thunderstorms and Rain
Thunderstorm Rain
65.1 °F
Feels Like 65.1 °F
N
0.0
Wind Variable Wind from North
Gusts 0.0 mph

Today
High -- | Low -- °F
--% Chance of Precip.
Yesterday
High -- | Low -- °F
Precip. -- in
6:10 AM 8:03 PM
Waxing Gibbous, 64% visible
Pressure 29.86 in
Visibility 1.2 miles
Clouds Scattered Clouds 1500 ft
Few 5000 ft
Overcast 5000 ft
Dew Point 65 °F
Humidity 100%
Rainfall 1.23 in
Snow Depth Not available.
UV 2 out of 12
Pollen Not available.
Air Quality Not available.
Flu Activity Not available.
METAR SADF 281300Z 14011KT 2000 TSRA SCT015 FEW050CB OVC050 21/20 Q1011

More Conditions Fewer Conditions

Pressure 29.86 in
Visibility 1.2 miles
Clouds Scattered Clouds 1500 ft
Few 5000 ft
Overcast 5000 ft
Dew Point 65 °F
Humidity 100%
Rainfall 1.23 in
Snow Depth Not available.
UV 2 out of 12
Pollen Not available.
Air Quality Not available.
Flu Activity Not available.
METAR SADF 281300Z 14011KT 2000 TSRA SCT015 FEW050CB OVC050 21/20 Q1011

More Conditions Fewer Conditions

10-Day Weather Forecast

Almanac

Astronomy

Jan. 28, 2015 Rise Set
Actual Time
Civil Twilight
Nautical Twilight
Astronomical Twilight
Moon
Length of Visible Light
Length of Day
Tomorrow will be .
, % of the Moon is Illuminated

Today's Extremes

Country Highs Country Lows

Community

WunderPhotos

Upload Photos

1,791,136 photos uploaded!

WunderBlogs® & News

Nearby

Air Quality

  Air Quality AQ Index Pollutant
Not available.

Snow Depth

Station Depth Elevation

Earthquake Activity

City Distance Mag. Time & Date
Minimum magnitude displayed is 2.5.

Coastal Water Temperatures

Place Temperature

Nearby Weather Stations